Flight Track Log - Related Links

Times and Time Zones

All times are in EDT time to prevent confusion due to time zone crossing. See the UAL4419 flight status page for this flight to view local times or setup timezone preferences in your user account.

Time Position Orientation Groundspeed Altitude Reporting Facility
EDT Latitude Longitude Course Direction KTS MPH feet Rate Location/Type
Mon 08:14:14 PM 29.9767 -95.3008 50° Northeast 162 186 700  Level Houston Center
Mon 08:14:30 PM 29.9839 -95.2908 50° Northeast 187 215 1,200 1,469 Climbing Houston Center
Mon 08:15:03 PM 30.0169 -95.2814 14° North 249 287 1,900 1,742 Climbing Houston Center
Mon 08:15:32 PM 30.0486 -95.2753 North 241 277 3,000 1,648 Climbing Houston Center
Mon 08:16:34 PM 30.1189 -95.2558 13° North 252 290 4,400 1,790 Climbing Houston Center
Mon 08:17:36 PM 30.1964 -95.2336 14° North 283 326 6,700 2,323 Climbing Houston Center
Mon 08:18:38 PM 30.2747 -95.2106 14° North 290 334 9,200 2,244 Climbing Houston Center
Mon 08:19:39 PM 30.3533 -95.1881 14° North 292 336 11,300 1,805 Climbing Houston Center
Mon 08:20:41 PM 30.4461 -95.1611 14° North 316 364 12,900 1,790 Climbing Houston Center
Mon 08:21:43 PM 30.5283 -95.1131 27° Northeast 329 379 15,000 1,887 Climbing Houston Center
Mon 08:22:45 PM 30.6194 -95.0569 28° Northeast 333 383 16,800 1,548 Climbing Houston Center
Mon 08:23:47 PM 30.7106 -95.0003 28° Northeast 340 391 18,200 1,220 Climbing Houston Center
Mon 08:24:48 PM 30.7992 -94.9444 28° Northeast 355 409 19,300 1,024 Climbing Houston Center
Mon 08:25:50 PM 30.8919 -94.8872 28° Northeast 373 429 20,300 989 Climbing Houston Center
Mon 08:26:19 PM 30.9308 -94.8633 28° Northeast 359 413 20,800 1,011 Climbing Fort Worth Center
Mon 08:27:19 PM 31.0256 -94.8028 29° Northeast 370 426 21,800 1,008 Climbing Fort Worth Center
Mon 08:28:18 PM 31.1225 -94.7417 28° Northeast 380 437 22,800 1,050 Climbing Fort Worth Center
Mon 08:29:19 PM 31.2356 -94.6681 29° Northeast 400 460 23,900 1,000 Climbing Fort Worth Center
Mon 08:30:18 PM 31.3344 -94.5994 31° Northeast 405 466 24,800 857 Climbing Fort Worth Center
Mon 08:31:18 PM 31.4372 -94.5281 31° Northeast 417 480 25,600 850 Climbing Fort Worth Center
Mon 08:32:18 PM 31.5378 -94.4592 30° Northeast 417 480 26,500 850 Climbing Fort Worth Center
Mon 08:33:18 PM 31.6386 -94.3903 30° Northeast 412 474 27,300 800 Climbing Fort Worth Center
Mon 08:34:18 PM 31.7392 -94.3183 31° Northeast 412 474 28,100 800 Climbing Fort Worth Center
Mon 08:35:18 PM 31.8375 -94.2492 31° Northeast 412 474 28,900 843 Climbing Fort Worth Center
Mon 08:36:19 PM 31.9381 -94.1794 30° Northeast 412 474 29,800 843 Climbing Fort Worth Center
Mon 08:37:19 PM 32.0406 -94.1097 30° Northeast 412 474 30,600 605 Climbing Fort Worth Center
Mon 08:38:18 PM 32.1408 -94.0350 32° Northeast 412 474 31,000 202 Climbing Fort Worth Center
Mon 08:39:18 PM 32.2350 -93.9653 32° Northeast 425 489 31,000  Level Fort Worth Center
Mon 08:40:18 PM 32.3436 -93.8847 32° Northeast 436 502 31,000  Level Fort Worth Center
Mon 08:41:18 PM 32.4500 -93.8117 30° Northeast 441 507 31,000  Level Fort Worth Center
Mon 08:42:18 PM 32.5686 -93.7306 30° Northeast 441 507 31,000  Level Fort Worth Center
Mon 08:43:18 PM 32.6667 -93.6600 31° Northeast 441 507 31,000  Level Fort Worth Center
Mon 08:44:18 PM 32.7731 -93.5839 31° Northeast 441 507 31,000  Level Fort Worth Center
Mon 08:45:19 PM 32.8811 -93.5050 32° Northeast 441 507 31,000  Level Fort Worth Center
Mon 08:46:19 PM 32.9894 -93.4261 31° Northeast 441 507 31,000  Level Fort Worth Center
Mon 08:47:19 PM 33.0975 -93.3494 31° Northeast 441 507 31,000 -50 Level Fort Worth Center
Mon 08:48:19 PM 33.2036 -93.2725 31° Northeast 441 507 30,900 -950 Descending Fort Worth Center
Mon 08:49:19 PM 33.3097 -93.1981 30° Northeast 441 507 29,100 -1,513 Descending Fort Worth Center
Mon 08:50:18 PM 33.4094 -93.1236 32° Northeast 435 501 27,900 -1,100 Descending Fort Worth Center
Mon 08:51:19 PM 33.5172 -93.0461 31° Northeast 435 501 26,900 -1,018 Descending Fort Worth Center
Mon 08:52:10 PM 33.6153 -92.9739 32° Northeast 441 507 26,000 -1,405 Descending Memphis Center
Mon 08:53:10 PM 33.7211 -92.8972 31° Northeast 455 524 24,300 -2,150 Descending Memphis Center
Mon 08:54:10 PM 33.8228 -92.8250 31° Northeast 449 517 21,700 -2,800 Descending Memphis Center
Mon 08:55:10 PM 33.9203 -92.7553 31° Northeast 425 489 18,700 -2,913 Descending Memphis Center
Mon 08:55:53 PM 33.9817 -92.7044 34° Northeast 397 457 16,700 -2,900 Descending Memphis Center
Mon 08:56:10 PM 34.0114 -92.6850 28° Northeast 409 471 15,800 -2,571 Descending Memphis Center
Mon 08:57:10 PM 34.0917 -92.6219 33° Northeast 384 442 13,400 -2,700 Descending Memphis Center
Mon 08:58:10 PM 34.1828 -92.5542 32° Northeast 384 442 10,400 -2,100 Descending Memphis Center
Mon 08:59:10 PM 34.2672 -92.4908 32° Northeast 377 434 9,200 -1,185 Descending Memphis Center
Mon 08:59:31 PM 34.2947 -92.4717 30° Northeast 307 353 8,800 -900 Descending Memphis Center
Mon 09:00:10 PM 34.3369 -92.4372 34° Northeast 334 384 8,300 -1,091 Descending Memphis Center
Mon 09:00:26 PM 34.3622 -92.4228 25° Northeast 289 333 7,800 -1,000 Descending Memphis Center
Mon 09:01:10 PM 34.4067 -92.3861 34° Northeast 302 348 7,300 -900 Descending Memphis Center
Mon 09:01:26 PM 34.4300 -92.3717 27° Northeast 287 330 6,900 -1,000 Descending Memphis Center
Mon 09:02:10 PM 34.4744 -92.3350 34° Northeast 290 334 6,300 -984 Descending Memphis Center
Mon 09:02:27 PM 34.4997 -92.3178 29° Northeast 287 330 5,900 -1,100 Descending Memphis Center
Mon 09:03:10 PM 34.5461 -92.2836 31° Northeast 278 320 5,200 -900 Descending Memphis Center
Mon 09:03:27 PM 34.5608 -92.2739 29° Northeast 272 313 5,000 -1,500 Descending Memphis Center
Mon 09:04:10 PM 34.6094 -92.2344 34° Northeast 273 314 3,700 -1,770 Descending Memphis Center
Mon 09:04:28 PM 34.6283 -92.2222 28° Northeast 265 305 3,200 -1,667 Descending Memphis Center

Login

Don't have an account? Register now (free) for customized features, flight alerts, and more!